METAR Data
IDs: Format: Raw Decoded Include TAF

Data at: 0713 UTC 23 Feb 2019

PANT 230653Z AUTO 03003KT 10SM BKN080 M01/M02 A2988 RMK SLP119 T10061017 TSNO $ VIA AUTODIAL
PANT 230553Z AUTO 00000KT 10SM CLR 00/M01 A2985 RMK SLP111 60000 T00001006 10050 21006 53021 TSNO $ VIA AUTODIAL
PANT 230453Z AUTO 32005KT 10SM CLR 02/01 A2983 RMK SLP103 T00170006 TSNO $ VIA AUTODIAL
PANT 230353Z AUTO 00000KT 10SM CLR 02/00 A2981 RMK SLP095 T00170000 TSNO $ VIA AUTODIAL
PANT 230253Z AUTO 33003KT 10SM OVC050 03/01 A2979 RMK SLP090 60000 T00330011 53017 TSNO $ VIA AUTODIAL
PANT 230053Z AUTO 00000KT 10SM FEW043 SCT060 04/02 A2975 RMK RAE04 SLP077 P0000 T00390022 TSNO $ VIA AUTODIAL
PANT 222353Z AUTO 32008KT 10SM -RA BKN030 OVC037 04/02 A2974 RMK RAB04E14B47 SLP073 P0000 60000 T00440017 10067 20039 51022 TSNO $ VIA AUTODIAL
PANT 222253Z AUTO 30004KT 10SM OVC060 06/02 A2972 RMK SLP066 T00560022 TSNO $ VIA AUTODIAL
PANT 222238Z AUTO 00000KT 10SM SCT019 OVC060 05/02 A2972 RMK T00500022 TSNO $ VIA AUTODIAL
PANT 222153Z AUTO 00000KT 10SM BKN023 OVC028 04/03 A2970 RMK SLP059 T00440028 TSNO $ VIA AUTODIAL
PANT 222053Z AUTO VRB05KT 10SM BKN020 OVC027 06/03 A2968 RMK SLP051 T00610028 51029 TSNO $ VIA AUTODIAL
PANT 222039Z AUTO 02004KT 10SM SCT018 BKN024 BKN032 06/03 A2967 RMK T00560028 TSNO $ VIA AUTODIAL
PANT 221953Z AUTO 07004KT 10SM SCT018 OVC043 04/02 A2965 RMK SLPNO T00440022 TSNO $ VIA AUTODIAL
PANT 221951Z AUTO 06003KT 10SM SCT018 OVC043 04/02 A2965 RMK TSNO $ VIA AUTODIAL
PANT 221946Z AUTO 07003KT 10SM BKN018 OVC043 04/02 A2965 RMK T00440017 TSNO $ VIA AUTODIAL
PANT 221853Z AUTO 02004KT 10SM SCT018 OVC045 04/03 A2962 RMK SLP032 T00390028 TSNO $ VIA AUTODIAL
PANT 221753Z AUTO VRB04KT 10SM FEW021 BKN035 BKN090 04/03 A2959 RMK SLP022 60007 T00390028 10044 20011 53019 TSNO $ VIA AUTODIAL
PANT 221735Z AUTO VRB03KT 10SM SCT024 SCT037 BKN090 03/03 A2958 RMK T00330028 TSNO $ VIA AUTODIAL
PANT 221653Z AUTO 05004KT 10SM FEW015 OVC026 02/02 A2956 RMK SLP012 T00170017 TSNO $ VIA AUTODIAL
PANT 221619Z AUTO 00000KT 10SM OVC015 02/02 A2955 RMK T00170017 TSNO $ VIA AUTODIAL
PANT 221553Z AUTO 06003KT 10SM OVC014 01/01 A2954 RMK SLP006 T00110011 TSNO $ VIA AUTODIAL
PANT 221453Z AUTO 00000KT 10SM SCT009 OVC017 01/01 A2953 RMK RAE31 SLP003 P0003 60007 T00110011 51008 TSNO $ VIA AUTODIAL
PANT 221451Z AUTO 00000KT 10SM SCT009 OVC017 01/01 A2953 RMK RAE31 P0003 TSNO $ VIA AUTODIAL
PANT 221449Z AUTO 00000KT 10SM BKN009 OVC017 01/01 A2953 RMK RAE31 P0003 TSNO $ VIA AUTODIAL
PANT 221438Z AUTO 00000KT 9SM SCT007 OVC019 01/01 A2953 RMK RAE31 P0003 T00110011 TSNO $ VIA AUTODIAL
PANT 221253Z AUTO 00000KT 10SM -RA BKN011 OVC021 02/02 A2951 RMK RAE23B53 SLP995 P0002 T00220022 TSNO $ VIA AUTODIAL
PANT 221233Z AUTO 12003KT 10SM BKN010 BKN017 OVC037 02/02 A2951 RMK RAE23 P0002 T00170017 TSNO $ VIA AUTODIAL
PANT 221217Z AUTO 00000KT 10SM -RA SCT008 BKN024 OVC037 02/02 A2951 RMK P0002 T00220022 TSNO $ VIA AUTODIAL
PANT 221153Z AUTO 16003KT 10SM -RA SCT012 OVC025 02/02 A2951 RMK RAE01B23UPB01E23 SLP996 P0000 60005 70056 T00220017 10033 20006 56011 TSNO $ VIA AUTODIAL
PANT 221151Z AUTO VRB03KT 10SM -RA SCT012 OVC025 02/02 A2951 RMK RAE01B23UPB01E23 P0000 TSNO $ VIA AUTODIAL
PANT 221129Z AUTO 19006KT 10SM -RA OVC013 03/02 A2952 RMK RAE01B23UPB01E23 P0000 T00280022 TSNO $ VIA AUTODIAL
PANT 221053Z AUTO VRB03KT 10SM -RA BKN015 OVC022 02/02 A2952 RMK RAB17 SLP998 P0002 T00220017 TSNO $ VIA AUTODIAL
PANT 221042Z AUTO 00000KT 10SM -RA SCT015 OVC024 02/01 A2952 RMK RAB17 P0001 T00170011 TSNO $ VIA AUTODIAL
PANT 220953Z AUTO 13003KT 10SM FEW032 FEW085 BKN100 01/01 A2953 RMK RAE07UPB07E10 SLP002 P0000 T00110011 TSNO $ VIA AUTODIAL
PANT 220903Z AUTO 00000KT 10SM -RA SCT024 BKN031 BKN110 02/02 A2954 RMK P0000 T00220017 TSNO $ VIA AUTODIAL
PANT 220853Z AUTO 24005KT 10SM -RA FEW020 BKN025 OVC032 02/02 A2955 RMK RAE0727B45UPB0713E0717 SLP007 P0001 60003 T00220017 400441028 TSNO $ VIA AUTODIAL
PANT 220751Z AUTO 00000KT 10SM SCT020 BKN040 OVC085 01/01 A2955 RMK RAE27UPB13E17 P0001 TSNO VIA AUTODIAL
PANT 220734Z AUTO 00000KT 10SM BKN022 BKN026 OVC032 02/02 A2954 RMK RAE27UPB13E17 P0001 T00220017 TSNO VIA AUTODIAL
PANT 220653Z AUTO 26005KT 10SM -RA FEW014 BKN030 OVC080 03/02 A2956 RMK RAE22B44 SLP011 P0001 T00280017 TSNO VIA AUTODIAL
PANT 220642Z AUTO VRB03KT 10SM FEW014 BKN080 OVC110 03/02 A2956 RMK RAE22 P0001 T00280022 TSNO VIA AUTODIAL
PANT 220553Z AUTO VRB04KT 8SM -RA FEW015 OVC026 03/02 A2955 RMK RAE0459B37 SLP010 P0001 60014 T00280017 10044 20011 56012 TSNO VIA AUTODIAL
PANT 220551Z AUTO VRB03KT 7SM -RA FEW015 OVC026 03/02 A2956 RMK RAE0459B37 P0001 TSNO VIA AUTODIAL
PANT 220453Z AUTO 17006KT 10SM -RA FEW026 BKN034 OVC055 03/01 A2957 RMK RAB44UPB45E46 SLP013 P0000 T00330006 TSNO VIA AUTODIAL
PANT 220353Z AUTO 00000KT 10SM SCT046 01/01 A2959 RMK SLP022 T00110011 TSNO VIA AUTODIAL
PANT 220253Z AUTO 26003KT 10SM BKN046 02/02 A2961 RMK RAE0155 SLP028 P0000 60013 T00220017 55016 TSNO VIA AUTODIAL
PANT 220153Z AUTO 27005KT 10SM -RA FEW014 BKN031 OVC070 03/03 A2959 RMK PK WND 19026/0118 SLP022 P0007 T00330028 TSNO VIA AUTODIAL
PANT 220151Z AUTO 26007KT 10SM -RA FEW014 BKN031 OVC070 03/03 A2959 RMK PK WND 19026/0118 P0007 TSNO VIA AUTODIAL
PANT 220142Z AUTO 26008KT 10SM -RA FEW012 SCT017 OVC024 04/03 A2960 RMK PK WND 19026/0118 P0006 T00390033 TSNO VIA AUTODIAL
PANT 220053Z AUTO 19013G24KT 7SM RA BKN013 OVC018 04/03 A2961 RMK PK WND 18029/0004 SLP027 P0006 T00440033 TSNO VIA AUTODIAL
PANT 212253Z AUTO 16014G26KT 6SM -RA BR BKN010 OVC014 03/02 A2971 RMK PK WND 17029/2226 SLP061 P0005 T00330022 TSNO VIA AUTODIAL
PANT 212153Z AUTO 16014G23KT 6SM -RA BR OVC011 03/03 A2975 RMK SLP076 P0006 T00330028 TSNO VIA AUTODIAL
PANT 212053Z AUTO 15017G28KT 6SM RA BR BKN011 OVC017 03/02 A2980 RMK PK WND 17028/2050 PRESFR SLP094 P0006 60011 T00330022 58037 TSNO VIA AUTODIAL
PANT 212027Z AUTO 16013G24KT 140V200 7SM -RA BKN013 OVC018 03/03 A2983 RMK P0002 T00330028 TSNO VIA AUTODIAL
PANT 212017Z AUTO 16013G24KT 7SM -RA BKN015 OVC020 03/02 A2984 RMK PRESFR P0001 T00330022 TSNO VIA AUTODIAL
PANT 212006Z AUTO 17008G21KT 8SM -RA BKN014 OVC021 03/02 A2986 RMK PRESFR P0001 T00330022 TSNO VIA AUTODIAL
PANT 211953Z AUTO 17011G19KT 10SM -RA BKN016 OVC022 04/02 A2987 RMK SLP116 P0004 T00390022 TSNO VIA AUTODIAL
PANT 211948Z AUTO 17011G19KT 10SM -RA BKN016 OVC022 04/02 A2987 RMK P0004 TSNO VIA AUTODIAL